sensor_id;sensor_type;location;lat;lon;timestamp;P1;durP1;ratioP1;P2;durP2;ratioP2
48859;SDS011;34679;51.436;-2.518;2023-05-19T00:01:54;8.38;;;2.83;;
48859;SDS011;34679;51.436;-2.518;2023-05-19T00:04:21;8.55;;;3.10;;
48859;SDS011;34679;51.436;-2.518;2023-05-19T00:06:49;12.65;;;3.53;;
48859;SDS011;34679;51.436;-2.518;2023-05-19T00:09:15;9.68;;;3.42;;
48859;SDS011;34679;51.436;-2.518;2023-05-19T00:11:41;21.85;;;4.43;;
48859;SDS011;34679;51.436;-2.518;2023-05-19T00:14:08;13.60;;;3.60;;
48859;SDS011;34679;51.436;-2.518;2023-05-19T00:16:35;11.48;;;3.22;;
48859;SDS011;34679;51.436;-2.518;2023-05-19T00:19:02;10.48;;;3.65;;
48859;SDS011;34679;51.436;-2.518;2023-05-19T00:21:30;10.60;;;3.60;;
48859;SDS011;34679;51.436;-2.518;2023-05-19T00:23:56;11.80;;;3.88;;
48859;SDS011;34679;51.436;-2.518;2023-05-19T00:26:22;14.70;;;3.70;;
48859;SDS011;34679;51.436;-2.518;2023-05-19T00:28:51;22.05;;;4.03;;
48859;SDS011;34679;51.436;-2.518;2023-05-19T00:31:17;13.45;;;3.42;;
48859;SDS011;34679;51.436;-2.518;2023-05-19T00:33:43;13.85;;;3.38;;
48859;SDS011;34679;51.436;-2.518;2023-05-19T00:36:09;14.00;;;3.95;;
48859;SDS011;34679;51.436;-2.518;2023-05-19T00:38:35;8.85;;;3.33;;
48859;SDS011;34679;51.436;-2.518;2023-05-19T00:41:01;17.15;;;3.53;;
48859;SDS011;34679;51.436;-2.518;2023-05-19T00:43:28;8.85;;;3.45;;
48859;SDS011;34679;51.436;-2.518;2023-05-19T00:45:54;12.88;;;4.25;;
48859;SDS011;34679;51.436;-2.518;2023-05-19T00:48:20;9.38;;;3.58;;
48859;SDS011;34679;51.436;-2.518;2023-05-19T00:50:46;15.23;;;4.28;;
48859;SDS011;34679;51.436;-2.518;2023-05-19T00:53:13;11.50;;;3.75;;
48859;SDS011;34679;51.436;-2.518;2023-05-19T00:55:41;10.90;;;3.92;;
48859;SDS011;34679;51.436;-2.518;2023-05-19T00:58:08;16.08;;;4.70;;
48859;SDS011;34679;51.436;-2.518;2023-05-19T01:00:35;10.20;;;4.63;;
48859;SDS011;34679;51.436;-2.518;2023-05-19T01:03:03;12.80;;;3.42;;
48859;SDS011;34679;51.436;-2.518;2023-05-19T01:05:39;20.67;;;4.75;;
48859;SDS011;34679;51.436;-2.518;2023-05-19T01:08:06;12.25;;;3.58;;
48859;SDS011;34679;51.436;-2.518;2023-05-19T01:10:32;12.68;;;4.35;;
48859;SDS011;34679;51.436;-2.518;2023-05-19T01:12:58;12.02;;;4.47;;
48859;SDS011;34679;51.436;-2.518;2023-05-19T01:15:25;14.93;;;3.90;;
48859;SDS011;34679;51.436;-2.518;2023-05-19T01:21:01;12.02;;;3.75;;
48859;SDS011;34679;51.436;-2.518;2023-05-19T01:23:45;14.20;;;4.25;;
48859;SDS011;34679;51.436;-2.518;2023-05-19T01:26:25;11.18;;;4.57;;
48859;SDS011;34679;51.436;-2.518;2023-05-19T01:32:13;16.33;;;4.28;;
48859;SDS011;34679;51.436;-2.518;2023-05-19T01:34:43;15.52;;;4.07;;
48859;SDS011;34679;51.436;-2.518;2023-05-19T01:37:10;12.80;;;4.35;;
48859;SDS011;34679;51.436;-2.518;2023-05-19T01:39:37;13.50;;;4.32;;
48859;SDS011;34679;51.436;-2.518;2023-05-19T01:42:04;17.27;;;3.90;;
48859;SDS011;34679;51.436;-2.518;2023-05-19T01:44:30;14.38;;;3.80;;
48859;SDS011;34679;51.436;-2.518;2023-05-19T01:46:57;10.18;;;3.78;;
48859;SDS011;34679;51.436;-2.518;2023-05-19T01:49:24;13.38;;;3.90;;
48859;SDS011;34679;51.436;-2.518;2023-05-19T01:51:51;10.93;;;4.35;;
48859;SDS011;34679;51.436;-2.518;2023-05-19T01:54:17;11.25;;;4.25;;
48859;SDS011;34679;51.436;-2.518;2023-05-19T02:04:56;9.90;;;3.85;;
48859;SDS011;34679;51.436;-2.518;2023-05-19T02:07:40;9.07;;;4.47;;
48859;SDS011;34679;51.436;-2.518;2023-05-19T02:10:13;14.30;;;4.22;;
48859;SDS011;34679;51.436;-2.518;2023-05-19T02:12:46;13.98;;;4.70;;
48859;SDS011;34679;51.436;-2.518;2023-05-19T02:15:20;9.68;;;3.63;;
48859;SDS011;34679;51.436;-2.518;2023-05-19T02:17:50;13.60;;;3.90;;
48859;SDS011;34679;51.436;-2.518;2023-05-19T02:20:19;13.73;;;4.63;;
48859;SDS011;34679;51.436;-2.518;2023-05-19T02:22:46;11.15;;;4.43;;
48859;SDS011;34679;51.436;-2.518;2023-05-19T02:25:12;11.18;;;4.32;;
48859;SDS011;34679;51.436;-2.518;2023-05-19T02:27:38;10.10;;;5.28;;
48859;SDS011;34679;51.436;-2.518;2023-05-19T02:30:04;15.82;;;4.30;;
48859;SDS011;34679;51.436;-2.518;2023-05-19T02:32:32;11.30;;;4.18;;
48859;SDS011;34679;51.436;-2.518;2023-05-19T02:34:58;11.30;;;5.22;;
48859;SDS011;34679;51.436;-2.518;2023-05-19T02:37:23;10.98;;;4.40;;
48859;SDS011;34679;51.436;-2.518;2023-05-19T02:39:52;12.48;;;4.80;;
48859;SDS011;34679;51.436;-2.518;2023-05-19T02:42:18;11.82;;;4.45;;
48859;SDS011;34679;51.436;-2.518;2023-05-19T02:44:44;8.73;;;4.43;;
48859;SDS011;34679;51.436;-2.518;2023-05-19T02:47:10;11.55;;;4.18;;
48859;SDS011;34679;51.436;-2.518;2023-05-19T02:49:36;11.40;;;4.43;;
48859;SDS011;34679;51.436;-2.518;2023-05-19T02:52:02;9.82;;;4.03;;
48859;SDS011;34679;51.436;-2.518;2023-05-19T02:54:29;6.15;;;3.95;;
48859;SDS011;34679;51.436;-2.518;2023-05-19T02:56:55;10.63;;;4.45;;
48859;SDS011;34679;51.436;-2.518;2023-05-19T02:59:21;9.65;;;3.92;;
48859;SDS011;34679;51.436;-2.518;2023-05-19T03:01:47;8.77;;;4.70;;
48859;SDS011;34679;51.436;-2.518;2023-05-19T03:04:13;12.40;;;4.32;;
48859;SDS011;34679;51.436;-2.518;2023-05-19T03:06:39;10.32;;;4.88;;
48859;SDS011;34679;51.436;-2.518;2023-05-19T03:09:06;11.30;;;4.57;;
48859;SDS011;34679;51.436;-2.518;2023-05-19T03:11:31;12.18;;;3.88;;
48859;SDS011;34679;51.436;-2.518;2023-05-19T03:13:57;8.77;;;5.15;;
48859;SDS011;34679;51.436;-2.518;2023-05-19T03:16:23;15.10;;;5.25;;
48859;SDS011;34679;51.436;-2.518;2023-05-19T03:18:49;13.18;;;4.80;;
48859;SDS011;34679;51.436;-2.518;2023-05-19T03:21:15;14.20;;;5.40;;
48859;SDS011;34679;51.436;-2.518;2023-05-19T03:23:40;18.63;;;5.22;;
48859;SDS011;34679;51.436;-2.518;2023-05-19T03:26:06;10.00;;;4.28;;
48859;SDS011;34679;51.436;-2.518;2023-05-19T03:28:32;13.30;;;5.00;;
48859;SDS011;34679;51.436;-2.518;2023-05-19T03:30:57;11.38;;;4.53;;
48859;SDS011;34679;51.436;-2.518;2023-05-19T03:33:23;6.75;;;4.15;;
48859;SDS011;34679;51.436;-2.518;2023-05-19T03:35:49;8.18;;;4.60;;
48859;SDS011;34679;51.436;-2.518;2023-05-19T03:38:16;15.75;;;5.13;;
48859;SDS011;34679;51.436;-2.518;2023-05-19T03:40:42;10.15;;;5.05;;
48859;SDS011;34679;51.436;-2.518;2023-05-19T03:43:08;6.90;;;3.70;;
48859;SDS011;34679;51.436;-2.518;2023-05-19T03:45:34;10.60;;;4.80;;
48859;SDS011;34679;51.436;-2.518;2023-05-19T03:48:00;9.35;;;6.03;;
48859;SDS011;34679;51.436;-2.518;2023-05-19T03:50:26;14.30;;;4.03;;
48859;SDS011;34679;51.436;-2.518;2023-05-19T03:52:53;10.32;;;4.47;;
48859;SDS011;34679;51.436;-2.518;2023-05-19T03:55:19;11.13;;;4.75;;
48859;SDS011;34679;51.436;-2.518;2023-05-19T03:57:45;9.73;;;4.47;;
48859;SDS011;34679;51.436;-2.518;2023-05-19T04:00:11;14.13;;;4.45;;
48859;SDS011;34679;51.436;-2.518;2023-05-19T04:02:37;7.57;;;4.65;;
48859;SDS011;34679;51.436;-2.518;2023-05-19T04:05:03;14.27;;;4.47;;
48859;SDS011;34679;51.436;-2.518;2023-05-19T04:07:29;7.20;;;4.60;;
48859;SDS011;34679;51.436;-2.518;2023-05-19T04:09:55;11.68;;;4.72;;
48859;SDS011;34679;51.436;-2.518;2023-05-19T04:12:21;15.02;;;5.03;;
48859;SDS011;34679;51.436;-2.518;2023-05-19T04:14:47;9.13;;;4.60;;
48859;SDS011;34679;51.436;-2.518;2023-05-19T04:17:13;13.30;;;6.07;;
48859;SDS011;34679;51.436;-2.518;2023-05-19T04:19:38;15.15;;;4.53;;
48859;SDS011;34679;51.436;-2.518;2023-05-19T04:22:04;8.10;;;5.63;;
48859;SDS011;34679;51.436;-2.518;2023-05-19T04:24:30;9.88;;;5.22;;
48859;SDS011;34679;51.436;-2.518;2023-05-19T04:26:56;8.68;;;4.50;;
48859;SDS011;34679;51.436;-2.518;2023-05-19T04:29:26;7.30;;;4.20;;
48859;SDS011;34679;51.436;-2.518;2023-05-19T04:31:53;13.80;;;5.65;;
48859;SDS011;34679;51.436;-2.518;2023-05-19T04:34:19;10.77;;;4.63;;
48859;SDS011;34679;51.436;-2.518;2023-05-19T04:36:45;10.98;;;4.45;;
48859;SDS011;34679;51.436;-2.518;2023-05-19T04:39:12;12.65;;;5.32;;
48859;SDS011;34679;51.436;-2.518;2023-05-19T04:41:38;11.68;;;5.63;;
48859;SDS011;34679;51.436;-2.518;2023-05-19T04:44:08;13.85;;;4.93;;
48859;SDS011;34679;51.436;-2.518;2023-05-19T04:46:35;8.68;;;4.85;;
48859;SDS011;34679;51.436;-2.518;2023-05-19T04:49:00;8.45;;;4.50;;
48859;SDS011;34679;51.436;-2.518;2023-05-19T04:51:27;11.63;;;4.60;;
48859;SDS011;34679;51.436;-2.518;2023-05-19T04:53:55;7.57;;;4.45;;
48859;SDS011;34679;51.436;-2.518;2023-05-19T04:56:21;8.35;;;4.72;;
48859;SDS011;34679;51.436;-2.518;2023-05-19T04:58:47;10.95;;;4.55;;
48859;SDS011;34679;51.436;-2.518;2023-05-19T05:01:13;8.32;;;4.30;;
48859;SDS011;34679;51.436;-2.518;2023-05-19T05:03:40;8.13;;;4.32;;
48859;SDS011;34679;51.436;-2.518;2023-05-19T05:06:06;8.98;;;4.88;;
48859;SDS011;34679;51.436;-2.518;2023-05-19T05:08:32;10.07;;;4.57;;
48859;SDS011;34679;51.436;-2.518;2023-05-19T05:10:58;13.90;;;4.68;;
48859;SDS011;34679;51.436;-2.518;2023-05-19T05:13:24;8.13;;;4.57;;
48859;SDS011;34679;51.436;-2.518;2023-05-19T05:15:50;8.02;;;4.40;;
48859;SDS011;34679;51.436;-2.518;2023-05-19T05:18:16;8.98;;;4.57;;
48859;SDS011;34679;51.436;-2.518;2023-05-19T05:20:42;8.43;;;4.65;;
48859;SDS011;34679;51.436;-2.518;2023-05-19T05:23:09;11.80;;;4.82;;
48859;SDS011;34679;51.436;-2.518;2023-05-19T05:25:39;9.40;;;4.63;;
48859;SDS011;34679;51.436;-2.518;2023-05-19T05:28:06;11.63;;;4.47;;
48859;SDS011;34679;51.436;-2.518;2023-05-19T05:30:34;9.15;;;5.18;;
48859;SDS011;34679;51.436;-2.518;2023-05-19T05:33:00;9.05;;;4.40;;
48859;SDS011;34679;51.436;-2.518;2023-05-19T05:35:27;7.95;;;4.28;;
48859;SDS011;34679;51.436;-2.518;2023-05-19T05:37:52;10.70;;;3.75;;
48859;SDS011;34679;51.436;-2.518;2023-05-19T05:40:18;7.90;;;4.20;;
48859;SDS011;34679;51.436;-2.518;2023-05-19T05:42:44;8.82;;;3.92;;
48859;SDS011;34679;51.436;-2.518;2023-05-19T05:45:10;10.63;;;4.22;;
48859;SDS011;34679;51.436;-2.518;2023-05-19T05:47:36;8.15;;;4.00;;
48859;SDS011;34679;51.436;-2.518;2023-05-19T05:50:04;7.78;;;3.90;;
48859;SDS011;34679;51.436;-2.518;2023-05-19T05:52:30;7.53;;;3.60;;
48859;SDS011;34679;51.436;-2.518;2023-05-19T05:54:57;12.77;;;3.67;;
48859;SDS011;34679;51.436;-2.518;2023-05-19T05:57:23;7.00;;;3.45;;
48859;SDS011;34679;51.436;-2.518;2023-05-19T05:59:48;5.85;;;3.60;;
48859;SDS011;34679;51.436;-2.518;2023-05-19T06:02:15;7.25;;;3.65;;
48859;SDS011;34679;51.436;-2.518;2023-05-19T06:04:41;7.55;;;3.75;;
48859;SDS011;34679;51.436;-2.518;2023-05-19T06:07:08;9.77;;;3.95;;
48859;SDS011;34679;51.436;-2.518;2023-05-19T06:09:34;9.05;;;3.63;;
48859;SDS011;34679;51.436;-2.518;2023-05-19T06:11:59;6.05;;;3.28;;
48859;SDS011;34679;51.436;-2.518;2023-05-19T06:14:25;9.35;;;3.15;;
48859;SDS011;34679;51.436;-2.518;2023-05-19T06:16:51;6.82;;;3.40;;
48859;SDS011;34679;51.436;-2.518;2023-05-19T06:19:17;6.25;;;3.40;;
48859;SDS011;34679;51.436;-2.518;2023-05-19T06:21:44;6.60;;;3.90;;
48859;SDS011;34679;51.436;-2.518;2023-05-19T06:24:09;5.85;;;3.80;;
48859;SDS011;34679;51.436;-2.518;2023-05-19T06:26:35;5.43;;;3.58;;
48859;SDS011;34679;51.436;-2.518;2023-05-19T06:29:01;8.32;;;3.83;;
48859;SDS011;34679;51.436;-2.518;2023-05-19T06:31:27;8.50;;;4.28;;
48859;SDS011;34679;51.436;-2.518;2023-05-19T06:33:53;9.18;;;4.00;;
48859;SDS011;34679;51.436;-2.518;2023-05-19T06:36:19;8.23;;;4.10;;
48859;SDS011;34679;51.436;-2.518;2023-05-19T06:38:45;8.95;;;4.35;;
48859;SDS011;34679;51.436;-2.518;2023-05-19T06:41:11;9.95;;;4.35;;
48859;SDS011;34679;51.436;-2.518;2023-05-19T06:43:37;6.18;;;3.95;;
48859;SDS011;34679;51.436;-2.518;2023-05-19T06:46:02;7.93;;;4.53;;
48859;SDS011;34679;51.436;-2.518;2023-05-19T06:48:28;7.70;;;4.20;;
48859;SDS011;34679;51.436;-2.518;2023-05-19T06:50:54;7.57;;;3.85;;
48859;SDS011;34679;51.436;-2.518;2023-05-19T06:53:20;10.98;;;4.40;;
48859;SDS011;34679;51.436;-2.518;2023-05-19T06:55:46;7.45;;;4.38;;
48859;SDS011;34679;51.436;-2.518;2023-05-19T06:58:14;8.20;;;3.97;;
48859;SDS011;34679;51.436;-2.518;2023-05-19T07:00:40;10.23;;;4.28;;
48859;SDS011;34679;51.436;-2.518;2023-05-19T07:03:07;17.65;;;4.55;;
48859;SDS011;34679;51.436;-2.518;2023-05-19T07:05:33;11.73;;;4.07;;
48859;SDS011;34679;51.436;-2.518;2023-05-19T07:07:58;9.88;;;4.00;;
48859;SDS011;34679;51.436;-2.518;2023-05-19T07:10:25;6.13;;;3.78;;
48859;SDS011;34679;51.436;-2.518;2023-05-19T07:12:51;7.18;;;3.90;;
48859;SDS011;34679;51.436;-2.518;2023-05-19T07:15:17;10.10;;;3.58;;
48859;SDS011;34679;51.436;-2.518;2023-05-19T07:17:42;6.50;;;3.78;;
48859;SDS011;34679;51.436;-2.518;2023-05-19T07:20:08;7.63;;;3.63;;
48859;SDS011;34679;51.436;-2.518;2023-05-19T07:22:35;7.40;;;3.60;;
48859;SDS011;34679;51.436;-2.518;2023-05-19T07:25:02;4.90;;;3.45;;
48859;SDS011;34679;51.436;-2.518;2023-05-19T07:27:27;12.00;;;4.80;;
48859;SDS011;34679;51.436;-2.518;2023-05-19T07:29:53;9.38;;;3.70;;
48859;SDS011;34679;51.436;-2.518;2023-05-19T07:32:19;9.77;;;3.90;;
48859;SDS011;34679;51.436;-2.518;2023-05-19T07:34:44;5.60;;;3.47;;
48859;SDS011;34679;51.436;-2.518;2023-05-19T07:37:10;5.68;;;3.60;;
48859;SDS011;34679;51.436;-2.518;2023-05-19T07:39:36;7.10;;;3.70;;
48859;SDS011;34679;51.436;-2.518;2023-05-19T07:42:02;6.13;;;3.80;;
48859;SDS011;34679;51.436;-2.518;2023-05-19T07:44:27;6.88;;;4.05;;
48859;SDS011;34679;51.436;-2.518;2023-05-19T07:46:55;12.15;;;3.47;;
48859;SDS011;34679;51.436;-2.518;2023-05-19T07:49:21;7.30;;;3.40;;
48859;SDS011;34679;51.436;-2.518;2023-05-19T07:51:47;12.10;;;4.00;;
48859;SDS011;34679;51.436;-2.518;2023-05-19T07:54:13;9.15;;;3.83;;
48859;SDS011;34679;51.436;-2.518;2023-05-19T07:56:39;6.00;;;3.80;;
48859;SDS011;34679;51.436;-2.518;2023-05-19T07:59:05;9.43;;;4.10;;
48859;SDS011;34679;51.436;-2.518;2023-05-19T08:01:32;8.68;;;4.53;;
48859;SDS011;34679;51.436;-2.518;2023-05-19T08:03:58;7.43;;;4.13;;
48859;SDS011;34679;51.436;-2.518;2023-05-19T08:06:24;9.38;;;3.65;;
48859;SDS011;34679;51.436;-2.518;2023-05-19T08:08:49;5.75;;;3.40;;
48859;SDS011;34679;51.436;-2.518;2023-05-19T08:11:16;6.75;;;3.70;;
48859;SDS011;34679;51.436;-2.518;2023-05-19T08:13:41;7.68;;;3.90;;
48859;SDS011;34679;51.436;-2.518;2023-05-19T08:16:07;4.50;;;3.30;;
48859;SDS011;34679;51.436;-2.518;2023-05-19T08:18:33;5.57;;;3.47;;
48859;SDS011;34679;51.436;-2.518;2023-05-19T08:20:58;8.48;;;3.50;;
48859;SDS011;34679;51.436;-2.518;2023-05-19T08:23:25;10.63;;;3.50;;
48859;SDS011;34679;51.436;-2.518;2023-05-19T08:25:51;5.25;;;3.40;;
48859;SDS011;34679;51.436;-2.518;2023-05-19T08:28:16;9.25;;;3.33;;
48859;SDS011;34679;51.436;-2.518;2023-05-19T08:30:42;7.47;;;3.20;;
48859;SDS011;34679;51.436;-2.518;2023-05-19T08:33:08;7.90;;;3.78;;
48859;SDS011;34679;51.436;-2.518;2023-05-19T08:35:33;4.97;;;3.47;;
48859;SDS011;34679;51.436;-2.518;2023-05-19T08:37:59;10.30;;;3.97;;
48859;SDS011;34679;51.436;-2.518;2023-05-19T08:40:25;6.80;;;3.65;;
48859;SDS011;34679;51.436;-2.518;2023-05-19T08:42:55;7.32;;;3.10;;
48859;SDS011;34679;51.436;-2.518;2023-05-19T08:45:21;9.65;;;3.13;;
48859;SDS011;34679;51.436;-2.518;2023-05-19T08:47:46;7.43;;;3.88;;
48859;SDS011;34679;51.436;-2.518;2023-05-19T08:50:16;8.30;;;3.10;;
48859;SDS011;34679;51.436;-2.518;2023-05-19T08:53:00;5.68;;;2.80;;
48859;SDS011;34679;51.436;-2.518;2023-05-19T08:55:39;10.25;;;3.20;;
48859;SDS011;34679;51.436;-2.518;2023-05-19T08:58:25;5.60;;;3.28;;
48859;SDS011;34679;51.436;-2.518;2023-05-19T09:00:52;6.50;;;3.63;;
48859;SDS011;34679;51.436;-2.518;2023-05-19T09:03:19;6.07;;;3.40;;
48859;SDS011;34679;51.436;-2.518;2023-05-19T09:05:47;7.65;;;3.65;;
48859;SDS011;34679;51.436;-2.518;2023-05-19T09:08:13;8.98;;;3.40;;
48859;SDS011;34679;51.436;-2.518;2023-05-19T09:10:38;9.23;;;3.05;;
48859;SDS011;34679;51.436;-2.518;2023-05-19T09:13:04;5.57;;;2.95;;
48859;SDS011;34679;51.436;-2.518;2023-05-19T09:15:30;8.98;;;2.60;;
48859;SDS011;34679;51.436;-2.518;2023-05-19T09:18:08;4.97;;;2.40;;
48859;SDS011;34679;51.436;-2.518;2023-05-19T09:20:39;5.10;;;2.95;;
48859;SDS011;34679;51.436;-2.518;2023-05-19T09:23:06;7.68;;;2.97;;
48859;SDS011;34679;51.436;-2.518;2023-05-19T09:25:32;10.48;;;3.15;;
48859;SDS011;34679;51.436;-2.518;2023-05-19T09:27:58;5.53;;;3.08;;
48859;SDS011;34679;51.436;-2.518;2023-05-19T09:30:23;10.25;;;3.85;;
48859;SDS011;34679;51.436;-2.518;2023-05-19T09:32:50;9.00;;;3.60;;
48859;SDS011;34679;51.436;-2.518;2023-05-19T09:35:16;8.38;;;3.80;;
48859;SDS011;34679;51.436;-2.518;2023-05-19T09:37:44;6.25;;;3.10;;
48859;SDS011;34679;51.436;-2.518;2023-05-19T09:40:12;6.25;;;3.50;;
48859;SDS011;34679;51.436;-2.518;2023-05-19T09:42:38;5.15;;;3.40;;
48859;SDS011;34679;51.436;-2.518;2023-05-19T09:45:05;8.40;;;3.55;;
48859;SDS011;34679;51.436;-2.518;2023-05-19T09:47:36;9.20;;;3.40;;
48859;SDS011;34679;51.436;-2.518;2023-05-19T09:50:07;5.78;;;2.90;;
48859;SDS011;34679;51.436;-2.518;2023-05-19T09:52:34;6.18;;;3.35;;
48859;SDS011;34679;51.436;-2.518;2023-05-19T09:55:01;8.30;;;3.60;;
48859;SDS011;34679;51.436;-2.518;2023-05-19T09:57:32;10.15;;;3.95;;
48859;SDS011;34679;51.436;-2.518;2023-05-19T10:00:02;8.13;;;3.40;;
48859;SDS011;34679;51.436;-2.518;2023-05-19T10:02:45;6.70;;;3.70;;
48859;SDS011;34679;51.436;-2.518;2023-05-19T10:05:15;10.45;;;3.25;;
48859;SDS011;34679;51.436;-2.518;2023-05-19T10:07:52;6.47;;;3.90;;
48859;SDS011;34679;51.436;-2.518;2023-05-19T10:10:19;11.55;;;4.55;;
48859;SDS011;34679;51.436;-2.518;2023-05-19T10:12:46;8.88;;;4.03;;
48859;SDS011;34679;51.436;-2.518;2023-05-19T10:15:15;6.00;;;3.47;;
48859;SDS011;34679;51.436;-2.518;2023-05-19T10:17:43;10.27;;;4.72;;
48859;SDS011;34679;51.436;-2.518;2023-05-19T10:20:10;9.32;;;4.05;;
48859;SDS011;34679;51.436;-2.518;2023-05-19T10:22:40;12.05;;;4.72;;
48859;SDS011;34679;51.436;-2.518;2023-05-19T10:25:08;8.55;;;4.60;;
48859;SDS011;34679;51.436;-2.518;2023-05-19T10:27:36;9.77;;;5.15;;
48859;SDS011;34679;51.436;-2.518;2023-05-19T10:30:09;7.50;;;4.80;;
48859;SDS011;34679;51.436;-2.518;2023-05-19T10:32:41;8.27;;;4.30;;
48859;SDS011;34679;51.436;-2.518;2023-05-19T10:40:35;8.57;;;4.43;;
48859;SDS011;34679;51.436;-2.518;2023-05-19T10:43:18;8.20;;;4.65;;
48859;SDS011;34679;51.436;-2.518;2023-05-19T10:45:52;13.40;;;4.85;;
48859;SDS011;34679;51.436;-2.518;2023-05-19T10:48:19;9.02;;;5.30;;
48859;SDS011;34679;51.436;-2.518;2023-05-19T10:50:46;8.48;;;5.00;;
48859;SDS011;34679;51.436;-2.518;2023-05-19T10:53:15;10.90;;;4.97;;
48859;SDS011;34679;51.436;-2.518;2023-05-19T10:55:43;10.23;;;4.90;;
48859;SDS011;34679;51.436;-2.518;2023-05-19T10:58:11;10.85;;;4.82;;
48859;SDS011;34679;51.436;-2.518;2023-05-19T11:00:38;9.75;;;4.80;;
48859;SDS011;34679;51.436;-2.518;2023-05-19T11:03:14;10.57;;;4.90;;
48859;SDS011;34679;51.436;-2.518;2023-05-19T11:05:42;9.10;;;4.53;;
48859;SDS011;34679;51.436;-2.518;2023-05-19T11:08:09;11.15;;;4.55;;
48859;SDS011;34679;51.436;-2.518;2023-05-19T11:10:36;12.00;;;4.75;;
48859;SDS011;34679;51.436;-2.518;2023-05-19T11:13:05;10.10;;;4.43;;
48859;SDS011;34679;51.436;-2.518;2023-05-19T11:15:34;7.80;;;4.28;;
48859;SDS011;34679;51.436;-2.518;2023-05-19T11:18:01;11.85;;;4.63;;
48859;SDS011;34679;51.436;-2.518;2023-05-19T11:20:28;12.05;;;4.70;;
48859;SDS011;34679;51.436;-2.518;2023-05-19T11:23:08;8.88;;;4.82;;
48859;SDS011;34679;51.436;-2.518;2023-05-19T11:25:43;8.32;;;5.18;;
48859;SDS011;34679;51.436;-2.518;2023-05-19T11:28:18;14.50;;;5.45;;
48859;SDS011;34679;51.436;-2.518;2023-05-19T11:30:46;11.98;;;4.93;;
48859;SDS011;34679;51.436;-2.518;2023-05-19T11:33:15;6.43;;;4.85;;
48859;SDS011;34679;51.436;-2.518;2023-05-19T11:35:45;12.70;;;4.70;;
48859;SDS011;34679;51.436;-2.518;2023-05-19T11:38:11;12.13;;;4.80;;
48859;SDS011;34679;51.436;-2.518;2023-05-19T11:40:38;10.57;;;4.35;;
48859;SDS011;34679;51.436;-2.518;2023-05-19T11:43:06;8.45;;;4.57;;
48859;SDS011;34679;51.436;-2.518;2023-05-19T11:45:32;11.65;;;5.45;;
48859;SDS011;34679;51.436;-2.518;2023-05-19T11:47:58;11.10;;;4.50;;
48859;SDS011;34679;51.436;-2.518;2023-05-19T11:50:24;8.30;;;4.80;;
48859;SDS011;34679;51.436;-2.518;2023-05-19T11:52:51;9.68;;;4.95;;
48859;SDS011;34679;51.436;-2.518;2023-05-19T11:55:20;9.70;;;4.35;;
48859;SDS011;34679;51.436;-2.518;2023-05-19T11:57:56;6.22;;;4.40;;
48859;SDS011;34679;51.436;-2.518;2023-05-19T12:00:25;10.98;;;4.18;;
48859;SDS011;34679;51.436;-2.518;2023-05-19T12:02:51;9.90;;;5.53;;
48859;SDS011;34679;51.436;-2.518;2023-05-19T12:05:20;8.90;;;4.28;;
48859;SDS011;34679;51.436;-2.518;2023-05-19T12:07:47;11.48;;;5.35;;
48859;SDS011;34679;51.436;-2.518;2023-05-19T12:10:15;7.38;;;4.80;;
48859;SDS011;34679;51.436;-2.518;2023-05-19T12:12:50;11.13;;;4.78;;
48859;SDS011;34679;51.436;-2.518;2023-05-19T12:15:17;8.10;;;4.50;;
48859;SDS011;34679;51.436;-2.518;2023-05-19T12:17:47;5.97;;;4.40;;
48859;SDS011;34679;51.436;-2.518;2023-05-19T12:20:23;8.13;;;4.32;;
48859;SDS011;34679;51.436;-2.518;2023-05-19T12:22:50;9.35;;;4.93;;
48859;SDS011;34679;51.436;-2.518;2023-05-19T12:25:16;5.65;;;4.30;;
48859;SDS011;34679;51.436;-2.518;2023-05-19T12:27:43;4.68;;;3.38;;
48859;SDS011;34679;51.436;-2.518;2023-05-19T12:30:09;12.40;;;3.67;;
48859;SDS011;34679;51.436;-2.518;2023-05-19T12:32:35;5.50;;;3.95;;
48859;SDS011;34679;51.436;-2.518;2023-05-19T12:35:01;8.43;;;3.97;;
48859;SDS011;34679;51.436;-2.518;2023-05-19T12:37:31;10.73;;;4.60;;
48859;SDS011;34679;51.436;-2.518;2023-05-19T12:39:59;9.60;;;4.60;;
48859;SDS011;34679;51.436;-2.518;2023-05-19T12:42:26;9.20;;;4.32;;
48859;SDS011;34679;51.436;-2.518;2023-05-19T12:44:55;6.90;;;3.90;;
48859;SDS011;34679;51.436;-2.518;2023-05-19T12:47:28;10.38;;;5.13;;
48859;SDS011;34679;51.436;-2.518;2023-05-19T12:52:27;7.10;;;3.78;;
48859;SDS011;34679;51.436;-2.518;2023-05-19T12:54:57;9.65;;;3.85;;
48859;SDS011;34679;51.436;-2.518;2023-05-19T12:57:29;4.93;;;3.45;;
48859;SDS011;34679;51.436;-2.518;2023-05-19T13:00:03;6.80;;;4.40;;
48859;SDS011;34679;51.436;-2.518;2023-05-19T13:02:53;7.80;;;4.15;;
48859;SDS011;34679;51.436;-2.518;2023-05-19T13:05:26;7.80;;;4.07;;
48859;SDS011;34679;51.436;-2.518;2023-05-19T13:07:57;12.23;;;3.97;;
48859;SDS011;34679;51.436;-2.518;2023-05-19T13:10:25;8.05;;;4.30;;
48859;SDS011;34679;51.436;-2.518;2023-05-19T13:12:52;8.50;;;4.28;;
48859;SDS011;34679;51.436;-2.518;2023-05-19T13:15:22;9.88;;;4.10;;
48859;SDS011;34679;51.436;-2.518;2023-05-19T13:17:50;9.35;;;4.00;;
48859;SDS011;34679;51.436;-2.518;2023-05-19T13:20:16;9.30;;;4.80;;
48859;SDS011;34679;51.436;-2.518;2023-05-19T13:22:42;9.52;;;4.00;;
48859;SDS011;34679;51.436;-2.518;2023-05-19T13:25:08;10.73;;;3.65;;
48859;SDS011;34679;51.436;-2.518;2023-05-19T13:27:34;4.90;;;3.55;;
48859;SDS011;34679;51.436;-2.518;2023-05-19T13:30:00;12.07;;;4.03;;
48859;SDS011;34679;51.436;-2.518;2023-05-19T13:32:26;8.65;;;3.83;;
48859;SDS011;34679;51.436;-2.518;2023-05-19T13:34:52;10.90;;;3.45;;
48859;SDS011;34679;51.436;-2.518;2023-05-19T13:37:18;8.70;;;3.67;;
48859;SDS011;34679;51.436;-2.518;2023-05-19T13:39:43;9.30;;;3.83;;
48859;SDS011;34679;51.436;-2.518;2023-05-19T13:42:09;8.50;;;3.50;;
48859;SDS011;34679;51.436;-2.518;2023-05-19T13:44:35;6.75;;;3.95;;
48859;SDS011;34679;51.436;-2.518;2023-05-19T13:47:01;6.25;;;3.45;;
48859;SDS011;34679;51.436;-2.518;2023-05-19T13:49:27;6.70;;;3.45;;
48859;SDS011;34679;51.436;-2.518;2023-05-19T13:51:55;8.40;;;3.35;;
48859;SDS011;34679;51.436;-2.518;2023-05-19T13:54:22;9.27;;;4.28;;
48859;SDS011;34679;51.436;-2.518;2023-05-19T13:56:48;6.07;;;2.95;;
48859;SDS011;34679;51.436;-2.518;2023-05-19T13:59:14;6.50;;;2.85;;
48859;SDS011;34679;51.436;-2.518;2023-05-19T14:01:43;3.63;;;2.83;;
48859;SDS011;34679;51.436;-2.518;2023-05-19T14:04:09;8.88;;;3.00;;
48859;SDS011;34679;51.436;-2.518;2023-05-19T14:06:35;4.43;;;2.70;;
48859;SDS011;34679;51.436;-2.518;2023-05-19T14:09:02;4.22;;;2.90;;
48859;SDS011;34679;51.436;-2.518;2023-05-19T14:11:28;4.43;;;2.78;;
48859;SDS011;34679;51.436;-2.518;2023-05-19T14:13:54;7.50;;;3.08;;
48859;SDS011;34679;51.436;-2.518;2023-05-19T14:16:20;6.53;;;2.90;;
48859;SDS011;34679;51.436;-2.518;2023-05-19T14:18:50;5.50;;;2.88;;
48859;SDS011;34679;51.436;-2.518;2023-05-19T14:21:16;4.20;;;2.78;;
48859;SDS011;34679;51.436;-2.518;2023-05-19T14:23:42;4.22;;;2.90;;
48859;SDS011;34679;51.436;-2.518;2023-05-19T14:26:08;8.38;;;3.00;;
48859;SDS011;34679;51.436;-2.518;2023-05-19T14:28:33;3.35;;;2.78;;
48859;SDS011;34679;51.436;-2.518;2023-05-19T14:30:59;4.15;;;2.45;;
48859;SDS011;34679;51.436;-2.518;2023-05-19T14:33:25;7.10;;;2.55;;
48859;SDS011;34679;51.436;-2.518;2023-05-19T14:35:51;7.07;;;2.70;;
48859;SDS011;34679;51.436;-2.518;2023-05-19T14:38:17;5.13;;;3.15;;
48859;SDS011;34679;51.436;-2.518;2023-05-19T14:40:43;3.00;;;2.33;;
48859;SDS011;34679;51.436;-2.518;2023-05-19T14:43:09;2.60;;;2.35;;
48859;SDS011;34679;51.436;-2.518;2023-05-19T14:45:37;2.30;;;2.10;;
48859;SDS011;34679;51.436;-2.518;2023-05-19T14:48:02;4.35;;;2.30;;
48859;SDS011;34679;51.436;-2.518;2023-05-19T14:50:29;3.25;;;2.30;;
48859;SDS011;34679;51.436;-2.518;2023-05-19T14:52:55;5.07;;;2.30;;